sensor_id;sensor_type;location;lat;lon;timestamp;P1;durP1;ratioP1;P2;durP2;ratioP2
23080;SDS011;11708;50.570;8.532;2023-02-25T00:01:10;10.40;;;2.28;;
23080;SDS011;11708;50.570;8.532;2023-02-25T00:03:37;9.48;;;3.35;;
23080;SDS011;11708;50.570;8.532;2023-02-25T00:06:04;12.80;;;2.80;;
23080;SDS011;11708;50.570;8.532;2023-02-25T00:08:31;9.07;;;2.65;;
23080;SDS011;11708;50.570;8.532;2023-02-25T00:10:59;9.32;;;2.85;;
23080;SDS011;11708;50.570;8.532;2023-02-25T00:13:29;11.00;;;2.53;;
23080;SDS011;11708;50.570;8.532;2023-02-25T00:15:55;12.82;;;2.38;;
23080;SDS011;11708;50.570;8.532;2023-02-25T00:18:24;5.97;;;2.47;;
23080;SDS011;11708;50.570;8.532;2023-02-25T00:20:50;10.95;;;2.92;;
23080;SDS011;11708;50.570;8.532;2023-02-25T00:23:16;12.27;;;2.65;;
23080;SDS011;11708;50.570;8.532;2023-02-25T00:25:42;14.45;;;2.80;;
23080;SDS011;11708;50.570;8.532;2023-02-25T00:28:09;11.73;;;3.10;;
23080;SDS011;11708;50.570;8.532;2023-02-25T00:30:36;10.13;;;2.80;;
23080;SDS011;11708;50.570;8.532;2023-02-25T00:33:03;5.25;;;2.88;;
23080;SDS011;11708;50.570;8.532;2023-02-25T00:35:30;11.13;;;3.17;;
23080;SDS011;11708;50.570;8.532;2023-02-25T00:37:56;11.00;;;2.60;;
23080;SDS011;11708;50.570;8.532;2023-02-25T00:40:22;10.73;;;3.50;;
23080;SDS011;11708;50.570;8.532;2023-02-25T00:42:47;9.35;;;3.15;;
23080;SDS011;11708;50.570;8.532;2023-02-25T00:45:13;8.63;;;3.25;;
23080;SDS011;11708;50.570;8.532;2023-02-25T00:47:39;9.40;;;3.70;;
23080;SDS011;11708;50.570;8.532;2023-02-25T00:50:06;11.15;;;2.90;;
23080;SDS011;11708;50.570;8.532;2023-02-25T00:52:33;13.20;;;3.42;;
23080;SDS011;11708;50.570;8.532;2023-02-25T00:54:59;11.85;;;3.45;;
23080;SDS011;11708;50.570;8.532;2023-02-25T00:57:25;12.15;;;3.72;;
23080;SDS011;11708;50.570;8.532;2023-02-25T00:59:51;10.00;;;3.63;;
23080;SDS011;11708;50.570;8.532;2023-02-25T01:02:16;12.25;;;3.92;;
23080;SDS011;11708;50.570;8.532;2023-02-25T01:04:42;10.77;;;3.60;;
23080;SDS011;11708;50.570;8.532;2023-02-25T01:07:08;10.27;;;3.90;;
23080;SDS011;11708;50.570;8.532;2023-02-25T01:09:35;13.10;;;3.55;;
23080;SDS011;11708;50.570;8.532;2023-02-25T01:12:01;9.75;;;3.50;;
23080;SDS011;11708;50.570;8.532;2023-02-25T01:14:27;16.02;;;4.43;;
23080;SDS011;11708;50.570;8.532;2023-02-25T01:16:52;11.20;;;4.78;;
23080;SDS011;11708;50.570;8.532;2023-02-25T01:19:22;8.80;;;4.18;;
23080;SDS011;11708;50.570;8.532;2023-02-25T01:21:50;10.18;;;3.78;;
23080;SDS011;11708;50.570;8.532;2023-02-25T01:24:19;16.77;;;4.70;;
23080;SDS011;11708;50.570;8.532;2023-02-25T01:26:47;16.80;;;4.55;;
23080;SDS011;11708;50.570;8.532;2023-02-25T01:29:15;8.18;;;3.80;;
23080;SDS011;11708;50.570;8.532;2023-02-25T01:31:43;10.98;;;3.88;;
23080;SDS011;11708;50.570;8.532;2023-02-25T01:34:10;15.13;;;4.22;;
23080;SDS011;11708;50.570;8.532;2023-02-25T01:36:38;14.48;;;4.20;;
23080;SDS011;11708;50.570;8.532;2023-02-25T01:39:04;10.43;;;4.18;;
23080;SDS011;11708;50.570;8.532;2023-02-25T01:41:31;7.82;;;3.60;;
23080;SDS011;11708;50.570;8.532;2023-02-25T01:44:06;10.82;;;4.28;;
23080;SDS011;11708;50.570;8.532;2023-02-25T01:46:36;12.88;;;4.28;;
23080;SDS011;11708;50.570;8.532;2023-02-25T01:49:06;9.75;;;4.03;;
23080;SDS011;11708;50.570;8.532;2023-02-25T01:51:37;13.13;;;4.80;;
23080;SDS011;11708;50.570;8.532;2023-02-25T01:54:03;7.10;;;3.53;;
23080;SDS011;11708;50.570;8.532;2023-02-25T01:56:32;11.98;;;3.90;;
23080;SDS011;11708;50.570;8.532;2023-02-25T01:58:59;10.88;;;3.85;;
23080;SDS011;11708;50.570;8.532;2023-02-25T02:01:28;8.88;;;3.67;;
23080;SDS011;11708;50.570;8.532;2023-02-25T02:03:57;9.43;;;4.15;;
23080;SDS011;11708;50.570;8.532;2023-02-25T02:06:29;14.40;;;3.83;;
23080;SDS011;11708;50.570;8.532;2023-02-25T02:08:58;8.80;;;4.05;;
23080;SDS011;11708;50.570;8.532;2023-02-25T02:11:30;8.45;;;3.17;;
23080;SDS011;11708;50.570;8.532;2023-02-25T02:13:56;9.32;;;3.38;;
23080;SDS011;11708;50.570;8.532;2023-02-25T02:19:22;9.68;;;3.90;;
23080;SDS011;11708;50.570;8.532;2023-02-25T02:45:23;7.38;;;3.70;;
23080;SDS011;11708;50.570;8.532;2023-02-25T02:47:58;6.93;;;3.33;;
23080;SDS011;11708;50.570;8.532;2023-02-25T02:53:09;12.35;;;4.43;;
23080;SDS011;11708;50.570;8.532;2023-02-25T02:55:39;8.57;;;4.05;;
23080;SDS011;11708;50.570;8.532;2023-02-25T02:58:11;9.95;;;4.43;;
23080;SDS011;11708;50.570;8.532;2023-02-25T03:00:42;15.20;;;4.70;;
23080;SDS011;11708;50.570;8.532;2023-02-25T03:03:18;10.32;;;4.38;;
23080;SDS011;11708;50.570;8.532;2023-02-25T03:06:00;12.98;;;3.65;;
23080;SDS011;11708;50.570;8.532;2023-02-25T03:08:32;11.60;;;4.10;;
23080;SDS011;11708;50.570;8.532;2023-02-25T03:11:03;8.80;;;4.15;;
23080;SDS011;11708;50.570;8.532;2023-02-25T03:13:29;11.93;;;4.13;;
23080;SDS011;11708;50.570;8.532;2023-02-25T03:15:55;13.38;;;4.95;;
23080;SDS011;11708;50.570;8.532;2023-02-25T03:20:58;9.23;;;4.07;;
23080;SDS011;11708;50.570;8.532;2023-02-25T03:26:36;13.07;;;4.35;;
23080;SDS011;11708;50.570;8.532;2023-02-25T03:29:02;11.30;;;4.45;;
23080;SDS011;11708;50.570;8.532;2023-02-25T03:31:36;15.95;;;4.70;;
23080;SDS011;11708;50.570;8.532;2023-02-25T03:36:41;10.52;;;4.22;;
23080;SDS011;11708;50.570;8.532;2023-02-25T03:39:13;10.40;;;3.85;;
23080;SDS011;11708;50.570;8.532;2023-02-25T03:41:48;9.55;;;3.88;;
23080;SDS011;11708;50.570;8.532;2023-02-25T03:44:18;11.77;;;4.40;;
23080;SDS011;11708;50.570;8.532;2023-02-25T03:46:52;8.23;;;4.10;;
23080;SDS011;11708;50.570;8.532;2023-02-25T03:49:21;13.45;;;4.22;;
23080;SDS011;11708;50.570;8.532;2023-02-25T03:51:52;11.95;;;4.93;;
23080;SDS011;11708;50.570;8.532;2023-02-25T03:54:19;14.48;;;4.68;;
23080;SDS011;11708;50.570;8.532;2023-02-25T03:56:46;11.57;;;4.40;;
23080;SDS011;11708;50.570;8.532;2023-02-25T03:59:13;8.50;;;4.25;;
23080;SDS011;11708;50.570;8.532;2023-02-25T04:01:40;9.85;;;4.43;;
23080;SDS011;11708;50.570;8.532;2023-02-25T04:04:08;13.10;;;5.18;;
23080;SDS011;11708;50.570;8.532;2023-02-25T04:06:34;12.30;;;5.07;;
23080;SDS011;11708;50.570;8.532;2023-02-25T04:08:59;12.13;;;4.95;;
23080;SDS011;11708;50.570;8.532;2023-02-25T04:11:25;13.98;;;5.35;;
23080;SDS011;11708;50.570;8.532;2023-02-25T04:13:51;11.35;;;5.25;;
23080;SDS011;11708;50.570;8.532;2023-02-25T04:16:17;10.10;;;4.45;;
23080;SDS011;11708;50.570;8.532;2023-02-25T04:18:43;16.05;;;5.00;;
23080;SDS011;11708;50.570;8.532;2023-02-25T04:21:08;12.68;;;4.50;;
23080;SDS011;11708;50.570;8.532;2023-02-25T04:23:34;10.13;;;4.50;;
23080;SDS011;11708;50.570;8.532;2023-02-25T04:26:01;15.95;;;5.50;;
23080;SDS011;11708;50.570;8.532;2023-02-25T04:28:26;13.43;;;5.05;;
23080;SDS011;11708;50.570;8.532;2023-02-25T04:30:52;9.27;;;4.95;;
23080;SDS011;11708;50.570;8.532;2023-02-25T04:33:18;8.07;;;4.57;;
23080;SDS011;11708;50.570;8.532;2023-02-25T04:35:43;10.07;;;4.50;;
23080;SDS011;11708;50.570;8.532;2023-02-25T04:38:09;11.40;;;3.97;;
23080;SDS011;11708;50.570;8.532;2023-02-25T04:40:35;14.82;;;5.30;;
23080;SDS011;11708;50.570;8.532;2023-02-25T04:43:01;12.70;;;5.57;;
23080;SDS011;11708;50.570;8.532;2023-02-25T04:45:27;12.07;;;4.93;;
23080;SDS011;11708;50.570;8.532;2023-02-25T04:47:53;14.88;;;5.38;;
23080;SDS011;11708;50.570;8.532;2023-02-25T04:50:21;12.40;;;4.40;;
23080;SDS011;11708;50.570;8.532;2023-02-25T04:52:47;12.75;;;4.38;;
23080;SDS011;11708;50.570;8.532;2023-02-25T04:55:13;17.13;;;4.90;;
23080;SDS011;11708;50.570;8.532;2023-02-25T04:57:39;11.07;;;4.38;;
23080;SDS011;11708;50.570;8.532;2023-02-25T05:00:11;9.57;;;4.55;;
23080;SDS011;11708;50.570;8.532;2023-02-25T05:02:40;11.23;;;4.47;;
23080;SDS011;11708;50.570;8.532;2023-02-25T05:05:06;14.10;;;4.18;;
23080;SDS011;11708;50.570;8.532;2023-02-25T05:07:32;13.57;;;5.50;;
23080;SDS011;11708;50.570;8.532;2023-02-25T05:09:57;12.52;;;4.90;;
23080;SDS011;11708;50.570;8.532;2023-02-25T05:12:23;10.02;;;4.53;;
23080;SDS011;11708;50.570;8.532;2023-02-25T05:14:49;10.43;;;4.53;;
23080;SDS011;11708;50.570;8.532;2023-02-25T05:17:14;11.50;;;5.25;;
23080;SDS011;11708;50.570;8.532;2023-02-25T05:19:40;8.90;;;4.50;;
23080;SDS011;11708;50.570;8.532;2023-02-25T05:22:07;8.48;;;4.03;;
23080;SDS011;11708;50.570;8.532;2023-02-25T05:24:33;11.45;;;4.85;;
23080;SDS011;11708;50.570;8.532;2023-02-25T05:26:59;9.25;;;4.05;;
23080;SDS011;11708;50.570;8.532;2023-02-25T05:29:32;10.98;;;4.63;;
23080;SDS011;11708;50.570;8.532;2023-02-25T05:31:58;9.07;;;4.20;;
23080;SDS011;11708;50.570;8.532;2023-02-25T05:34:24;10.57;;;4.20;;
23080;SDS011;11708;50.570;8.532;2023-02-25T05:36:49;6.32;;;4.22;;
23080;SDS011;11708;50.570;8.532;2023-02-25T05:39:15;12.48;;;4.70;;
23080;SDS011;11708;50.570;8.532;2023-02-25T05:41:40;10.85;;;4.35;;
23080;SDS011;11708;50.570;8.532;2023-02-25T05:44:06;11.25;;;4.43;;
23080;SDS011;11708;50.570;8.532;2023-02-25T05:46:33;16.92;;;4.68;;
23080;SDS011;11708;50.570;8.532;2023-02-25T05:48:59;10.63;;;4.57;;
23080;SDS011;11708;50.570;8.532;2023-02-25T05:51:24;9.85;;;4.57;;
23080;SDS011;11708;50.570;8.532;2023-02-25T05:53:50;8.18;;;4.70;;
23080;SDS011;11708;50.570;8.532;2023-02-25T05:56:18;13.93;;;5.13;;
23080;SDS011;11708;50.570;8.532;2023-02-25T05:58:45;10.15;;;4.75;;
23080;SDS011;11708;50.570;8.532;2023-02-25T06:01:13;10.25;;;5.03;;
23080;SDS011;11708;50.570;8.532;2023-02-25T06:03:44;9.25;;;4.78;;
23080;SDS011;11708;50.570;8.532;2023-02-25T06:06:11;10.30;;;5.03;;
23080;SDS011;11708;50.570;8.532;2023-02-25T06:08:39;12.15;;;5.60;;
23080;SDS011;11708;50.570;8.532;2023-02-25T06:11:08;9.65;;;4.68;;
23080;SDS011;11708;50.570;8.532;2023-02-25T06:13:34;10.32;;;4.43;;
23080;SDS011;11708;50.570;8.532;2023-02-25T06:16:03;9.27;;;4.22;;
23080;SDS011;11708;50.570;8.532;2023-02-25T06:18:29;11.30;;;5.20;;
23080;SDS011;11708;50.570;8.532;2023-02-25T06:21:04;15.70;;;5.05;;
23080;SDS011;11708;50.570;8.532;2023-02-25T06:23:31;11.00;;;4.43;;
23080;SDS011;11708;50.570;8.532;2023-02-25T06:26:01;12.30;;;5.35;;
23080;SDS011;11708;50.570;8.532;2023-02-25T06:28:27;10.68;;;4.70;;
23080;SDS011;11708;50.570;8.532;2023-02-25T06:30:53;16.02;;;5.28;;
23080;SDS011;11708;50.570;8.532;2023-02-25T06:33:19;11.05;;;5.20;;
23080;SDS011;11708;50.570;8.532;2023-02-25T06:35:48;10.48;;;4.65;;
23080;SDS011;11708;50.570;8.532;2023-02-25T06:38:15;12.77;;;5.40;;
23080;SDS011;11708;50.570;8.532;2023-02-25T06:40:40;11.90;;;4.82;;
23080;SDS011;11708;50.570;8.532;2023-02-25T06:43:06;9.70;;;5.18;;
23080;SDS011;11708;50.570;8.532;2023-02-25T06:45:32;17.45;;;5.22;;
23080;SDS011;11708;50.570;8.532;2023-02-25T06:47:58;12.25;;;5.20;;
23080;SDS011;11708;50.570;8.532;2023-02-25T06:50:24;12.50;;;5.00;;
23080;SDS011;11708;50.570;8.532;2023-02-25T06:52:49;11.38;;;5.03;;
23080;SDS011;11708;50.570;8.532;2023-02-25T06:55:15;15.02;;;5.65;;
23080;SDS011;11708;50.570;8.532;2023-02-25T06:57:41;18.23;;;5.45;;
23080;SDS011;11708;50.570;8.532;2023-02-25T07:00:06;13.50;;;4.47;;
23080;SDS011;11708;50.570;8.532;2023-02-25T07:02:33;11.50;;;4.93;;
23080;SDS011;11708;50.570;8.532;2023-02-25T07:05:11;12.98;;;5.97;;
23080;SDS011;11708;50.570;8.532;2023-02-25T07:07:37;12.23;;;5.35;;
23080;SDS011;11708;50.570;8.532;2023-02-25T07:10:03;13.50;;;5.07;;
23080;SDS011;11708;50.570;8.532;2023-02-25T07:12:29;14.38;;;5.50;;
23080;SDS011;11708;50.570;8.532;2023-02-25T07:14:55;14.57;;;5.43;;
23080;SDS011;11708;50.570;8.532;2023-02-25T07:17:21;13.80;;;5.75;;
23080;SDS011;11708;50.570;8.532;2023-02-25T07:19:46;12.85;;;6.30;;
23080;SDS011;11708;50.570;8.532;2023-02-25T07:22:16;11.70;;;5.25;;
23080;SDS011;11708;50.570;8.532;2023-02-25T07:24:42;18.30;;;5.25;;
23080;SDS011;11708;50.570;8.532;2023-02-25T07:27:08;12.82;;;5.05;;
23080;SDS011;11708;50.570;8.532;2023-02-25T07:29:34;12.05;;;5.05;;
23080;SDS011;11708;50.570;8.532;2023-02-25T07:32:00;17.73;;;5.47;;
23080;SDS011;11708;50.570;8.532;2023-02-25T07:34:26;16.20;;;5.20;;
23080;SDS011;11708;50.570;8.532;2023-02-25T07:36:51;12.93;;;6.00;;
23080;SDS011;11708;50.570;8.532;2023-02-25T07:39:17;13.88;;;5.38;;
23080;SDS011;11708;50.570;8.532;2023-02-25T07:41:42;18.92;;;5.53;;
23080;SDS011;11708;50.570;8.532;2023-02-25T07:44:08;14.65;;;5.50;;
23080;SDS011;11708;50.570;8.532;2023-02-25T07:46:34;14.05;;;5.55;;
23080;SDS011;11708;50.570;8.532;2023-02-25T07:49:01;16.50;;;6.28;;
23080;SDS011;11708;50.570;8.532;2023-02-25T07:51:27;15.23;;;6.07;;
23080;SDS011;11708;50.570;8.532;2023-02-25T07:53:53;18.23;;;6.95;;
23080;SDS011;11708;50.570;8.532;2023-02-25T07:56:20;14.43;;;6.03;;
23080;SDS011;11708;50.570;8.532;2023-02-25T07:58:47;16.02;;;6.28;;
23080;SDS011;11708;50.570;8.532;2023-02-25T08:03:44;15.90;;;6.97;;
23080;SDS011;11708;50.570;8.532;2023-02-25T08:06:13;17.48;;;6.45;;
23080;SDS011;11708;50.570;8.532;2023-02-25T08:08:39;14.88;;;4.97;;
23080;SDS011;11708;50.570;8.532;2023-02-25T08:11:08;13.07;;;4.85;;
23080;SDS011;11708;50.570;8.532;2023-02-25T08:13:37;14.93;;;5.38;;
23080;SDS011;11708;50.570;8.532;2023-02-25T08:16:06;13.57;;;5.68;;
23080;SDS011;11708;50.570;8.532;2023-02-25T08:18:34;9.63;;;5.22;;
23080;SDS011;11708;50.570;8.532;2023-02-25T08:21:00;18.02;;;5.82;;
23080;SDS011;11708;50.570;8.532;2023-02-25T08:23:28;10.57;;;5.50;;
23080;SDS011;11708;50.570;8.532;2023-02-25T08:25:54;14.95;;;5.70;;
23080;SDS011;11708;50.570;8.532;2023-02-25T08:28:21;10.57;;;5.72;;
23080;SDS011;11708;50.570;8.532;2023-02-25T08:30:48;17.80;;;6.00;;
23080;SDS011;11708;50.570;8.532;2023-02-25T08:33:15;13.02;;;5.43;;
23080;SDS011;11708;50.570;8.532;2023-02-25T08:35:40;14.10;;;6.20;;
23080;SDS011;11708;50.570;8.532;2023-02-25T08:38:06;12.20;;;5.78;;
23080;SDS011;11708;50.570;8.532;2023-02-25T08:40:33;11.07;;;5.03;;
23080;SDS011;11708;50.570;8.532;2023-02-25T08:42:58;13.13;;;6.40;;
23080;SDS011;11708;50.570;8.532;2023-02-25T08:45:24;12.35;;;5.65;;
23080;SDS011;11708;50.570;8.532;2023-02-25T08:47:50;17.17;;;6.07;;
23080;SDS011;11708;50.570;8.532;2023-02-25T08:50:15;15.90;;;6.50;;
23080;SDS011;11708;50.570;8.532;2023-02-25T08:52:41;12.43;;;5.45;;
23080;SDS011;11708;50.570;8.532;2023-02-25T08:55:08;13.38;;;5.03;;
23080;SDS011;11708;50.570;8.532;2023-02-25T08:57:35;12.82;;;5.20;;
23080;SDS011;11708;50.570;8.532;2023-02-25T09:00:01;14.45;;;5.85;;
23080;SDS011;11708;50.570;8.532;2023-02-25T09:02:30;13.63;;;5.30;;
23080;SDS011;11708;50.570;8.532;2023-02-25T09:04:56;13.52;;;5.05;;
23080;SDS011;11708;50.570;8.532;2023-02-25T09:07:21;12.18;;;5.05;;
23080;SDS011;11708;50.570;8.532;2023-02-25T09:09:47;12.18;;;5.03;;
23080;SDS011;11708;50.570;8.532;2023-02-25T09:12:13;12.40;;;4.88;;
23080;SDS011;11708;50.570;8.532;2023-02-25T09:14:39;12.18;;;5.80;;
23080;SDS011;11708;50.570;8.532;2023-02-25T09:17:06;11.48;;;4.88;;
23080;SDS011;11708;50.570;8.532;2023-02-25T09:19:32;11.65;;;5.05;;
23080;SDS011;11708;50.570;8.532;2023-02-25T09:21:58;10.57;;;4.65;;
23080;SDS011;11708;50.570;8.532;2023-02-25T09:24:24;9.73;;;5.25;;
23080;SDS011;11708;50.570;8.532;2023-02-25T09:26:51;12.70;;;4.82;;
23080;SDS011;11708;50.570;8.532;2023-02-25T09:29:17;8.80;;;4.88;;
23080;SDS011;11708;50.570;8.532;2023-02-25T09:31:43;8.43;;;4.07;;
23080;SDS011;11708;50.570;8.532;2023-02-25T09:34:09;15.70;;;4.90;;
23080;SDS011;11708;50.570;8.532;2023-02-25T09:36:38;11.82;;;5.57;;
23080;SDS011;11708;50.570;8.532;2023-02-25T09:39:04;15.27;;;5.45;;
23080;SDS011;11708;50.570;8.532;2023-02-25T09:41:36;11.35;;;4.20;;
23080;SDS011;11708;50.570;8.532;2023-02-25T09:44:15;9.93;;;4.47;;
23080;SDS011;11708;50.570;8.532;2023-02-25T09:46:51;10.35;;;4.65;;
23080;SDS011;11708;50.570;8.532;2023-02-25T09:49:22;12.90;;;5.30;;
23080;SDS011;11708;50.570;8.532;2023-02-25T09:52:12;10.27;;;4.60;;
23080;SDS011;11708;50.570;8.532;2023-02-25T09:54:46;9.18;;;4.82;;
23080;SDS011;11708;50.570;8.532;2023-02-25T09:57:17;11.35;;;5.00;;
23080;SDS011;11708;50.570;8.532;2023-02-25T09:59:45;12.73;;;4.50;;
23080;SDS011;11708;50.570;8.532;2023-02-25T10:05:27;6.03;;;2.65;;
23080;SDS011;11708;50.570;8.532;2023-02-25T10:08:13;4.03;;;2.08;;
23080;SDS011;11708;50.570;8.532;2023-02-25T10:16:47;2.45;;;1.25;;
23080;SDS011;11708;50.570;8.532;2023-02-25T10:19:39;2.17;;;0.90;;
23080;SDS011;11708;50.570;8.532;2023-02-25T10:25:15;2.97;;;1.40;;
23080;SDS011;11708;50.570;8.532;2023-02-25T10:27:48;3.55;;;1.10;;
23080;SDS011;11708;50.570;8.532;2023-02-25T10:30:41;2.53;;;1.10;;
23080;SDS011;11708;50.570;8.532;2023-02-25T10:33:36;3.97;;;1.42;;
23080;SDS011;11708;50.570;8.532;2023-02-25T10:36:17;2.30;;;1.40;;
23080;SDS011;11708;50.570;8.532;2023-02-25T10:39:07;4.20;;;1.60;;
23080;SDS011;11708;50.570;8.532;2023-02-25T10:41:34;4.13;;;1.70;;
23080;SDS011;11708;50.570;8.532;2023-02-25T10:44:00;4.18;;;1.70;;
23080;SDS011;11708;50.570;8.532;2023-02-25T10:46:32;4.95;;;2.13;;
23080;SDS011;11708;50.570;8.532;2023-02-25T10:49:12;2.83;;;2.08;;
23080;SDS011;11708;50.570;8.532;2023-02-25T10:54:47;3.92;;;2.50;;
23080;SDS011;11708;50.570;8.532;2023-02-25T10:59:57;6.38;;;2.70;;
23080;SDS011;11708;50.570;8.532;2023-02-25T11:02:28;8.93;;;3.85;;
23080;SDS011;11708;50.570;8.532;2023-02-25T11:04:55;3.63;;;2.25;;
23080;SDS011;11708;50.570;8.532;2023-02-25T11:10:07;3.85;;;2.30;;
23080;SDS011;11708;50.570;8.532;2023-02-25T11:13:13;5.22;;;2.20;;
23080;SDS011;11708;50.570;8.532;2023-02-25T11:18:01;3.95;;;2.78;;
23080;SDS011;11708;50.570;8.532;2023-02-25T11:20:52;5.68;;;2.58;;
23080;SDS011;11708;50.570;8.532;2023-02-25T11:23:29;4.97;;;2.33;;
23080;SDS011;11708;50.570;8.532;2023-02-25T11:25:58;3.75;;;2.03;;
23080;SDS011;11708;50.570;8.532;2023-02-25T11:28:37;3.60;;;1.65;;
23080;SDS011;11708;50.570;8.532;2023-02-25T11:33:31;2.38;;;1.70;;
23080;SDS011;11708;50.570;8.532;2023-02-25T11:36:00;4.55;;;2.20;;
23080;SDS011;11708;50.570;8.532;2023-02-25T11:38:36;2.97;;;1.92;;
23080;SDS011;11708;50.570;8.532;2023-02-25T11:41:03;3.40;;;1.65;;
23080;SDS011;11708;50.570;8.532;2023-02-25T11:43:38;7.18;;;2.60;;
23080;SDS011;11708;50.570;8.532;2023-02-25T11:46:07;6.55;;;2.70;;
23080;SDS011;11708;50.570;8.532;2023-02-25T11:51:18;5.90;;;2.45;;
23080;SDS011;11708;50.570;8.532;2023-02-25T11:54:07;3.55;;;1.92;;
23080;SDS011;11708;50.570;8.532;2023-02-25T11:56:51;5.10;;;1.65;;
23080;SDS011;11708;50.570;8.532;2023-02-25T12:19:04;1.45;;;0.95;;
23080;SDS011;11708;50.570;8.532;2023-02-25T12:27:34;2.78;;;1.17;;
23080;SDS011;11708;50.570;8.532;2023-02-25T12:39:04;1.92;;;0.70;;
23080;SDS011;11708;50.570;8.532;2023-02-25T12:41:54;2.70;;;0.65;;
23080;SDS011;11708;50.570;8.532;2023-02-25T13:01:48;2.78;;;0.70;;
23080;SDS011;11708;50.570;8.532;2023-02-25T13:12:36;3.60;;;1.20;;
23080;SDS011;11708;50.570;8.532;2023-02-25T13:15:24;7.13;;;2.60;;
23080;SDS011;11708;50.570;8.532;2023-02-25T13:20:52;5.20;;;1.25;;
23080;SDS011;11708;50.570;8.532;2023-02-25T13:26:44;3.10;;;1.30;;
23080;SDS011;11708;50.570;8.532;2023-02-25T13:32:18;2.22;;;1.20;;
23080;SDS011;11708;50.570;8.532;2023-02-25T13:35:03;3.47;;;1.40;;
23080;SDS011;11708;50.570;8.532;2023-02-25T13:42:53;3.50;;;1.23;;
23080;SDS011;11708;50.570;8.532;2023-02-25T13:45:45;3.70;;;1.50;;
23080;SDS011;11708;50.570;8.532;2023-02-25T14:03:08;2.65;;;1.17;;
23080;SDS011;11708;50.570;8.532;2023-02-25T14:06:00;4.03;;;1.55;;
23080;SDS011;11708;50.570;8.532;2023-02-25T14:08:36;3.22;;;1.38;;
23080;SDS011;11708;50.570;8.532;2023-02-25T14:16:53;5.85;;;1.42;;
23080;SDS011;11708;50.570;8.532;2023-02-25T14:27:54;5.65;;;1.50;;
23080;SDS011;11708;50.570;8.532;2023-02-25T14:30:38;3.05;;;1.27;;
23080;SDS011;11708;50.570;8.532;2023-02-25T14:36:23;4.75;;;1.80;;
23080;SDS011;11708;50.570;8.532;2023-02-25T14:39:13;4.15;;;1.90;;
23080;SDS011;11708;50.570;8.532;2023-02-25T14:44:32;3.20;;;1.50;;
23080;SDS011;11708;50.570;8.532;2023-02-25T14:47:10;4.63;;;1.40;;
23080;SDS011;11708;50.570;8.532;2023-02-25T14:49:46;4.85;;;1.52;;
23080;SDS011;11708;50.570;8.532;2023-02-25T14:52:39;4.13;;;1.17;;
23080;SDS011;11708;50.570;8.532;2023-02-25T14:58:29;3.38;;;2.10;;
23080;SDS011;11708;50.570;8.532;2023-02-25T15:01:16;4.53;;;1.63;;
23080;SDS011;11708;50.570;8.532;2023-02-25T15:03:59;1.85;;;1.10;;
23080;SDS011;11708;50.570;8.532;2023-02-25T15:12:14;3.50;;;1.20;;
23080;SDS011;11708;50.570;8.532;2023-02-25T15:15:07;4.90;;;1.30;;
23080;SDS011;11708;50.570;8.532;2023-02-25T15:23:55;4.38;;;1.25;;
23080;SDS011;11708;50.570;8.532;2023-02-25T15:28:48;19.27;;;8.93;;
23080;SDS011;11708;50.570;8.532;2023-02-25T15:31:26;2.67;;;1.40;;
23080;SDS011;11708;50.570;8.532;2023-02-25T15:36:45;2.05;;;1.23;;
23080;SDS011;11708;50.570;8.532;2023-02-25T15:42:12;4.07;;;1.38;;
23080;SDS011;11708;50.570;8.532;2023-02-25T15:44:38;3.85;;;1.42;;
23080;SDS011;11708;50.570;8.532;2023-02-25T15:49:47;4.88;;;1.83;;
23080;SDS011;11708;50.570;8.532;2023-02-25T15:52:47;6.00;;;1.40;;
23080;SDS011;11708;50.570;8.532;2023-02-25T15:55:18;2.42;;;1.20;;
23080;SDS011;11708;50.570;8.532;2023-02-25T15:57:55;8.27;;;3.22;;
23080;SDS011;11708;50.570;8.532;2023-02-25T16:13:56;2.60;;;1.70;;
23080;SDS011;11708;50.570;8.532;2023-02-25T16:16:24;4.88;;;1.40;;
23080;SDS011;11708;50.570;8.532;2023-02-25T16:18:52;2.03;;;1.05;;
23080;SDS011;11708;50.570;8.532;2023-02-25T16:23:53;3.22;;;1.08;;
23080;SDS011;11708;50.570;8.532;2023-02-25T16:28:50;5.00;;;2.50;;
23080;SDS011;11708;50.570;8.532;2023-02-25T16:31:28;3.92;;;1.95;;
23080;SDS011;11708;50.570;8.532;2023-02-25T16:34:01;2.60;;;1.10;;
23080;SDS011;11708;50.570;8.532;2023-02-25T16:36:36;2.95;;;1.02;;
23080;SDS011;11708;50.570;8.532;2023-02-25T16:39:10;3.60;;;1.00;;
23080;SDS011;11708;50.570;8.532;2023-02-25T16:41:37;1.77;;;0.93;;
23080;SDS011;11708;50.570;8.532;2023-02-25T16:44:03;1.30;;;0.95;;
23080;SDS011;11708;50.570;8.532;2023-02-25T16:46:30;1.20;;;1.00;;
23080;SDS011;11708;50.570;8.532;2023-02-25T16:48:59;2.83;;;0.90;;
23080;SDS011;11708;50.570;8.532;2023-02-25T16:54:11;2.15;;;0.98;;
23080;SDS011;11708;50.570;8.532;2023-02-25T16:56:42;1.48;;;0.90;;
23080;SDS011;11708;50.570;8.532;2023-02-25T17:01:44;1.73;;;0.93;;
23080;SDS011;11708;50.570;8.532;2023-02-25T17:04:24;2.75;;;0.80;;
23080;SDS011;11708;50.570;8.532;2023-02-25T17:07:29;2.95;;;0.90;;
23080;SDS011;11708;50.570;8.532;2023-02-25T17:09:56;4.15;;;1.10;;
23080;SDS011;11708;50.570;8.532;2023-02-25T17:15:10;1.75;;;0.80;;
23080;SDS011;11708;50.570;8.532;2023-02-25T17:17:38;2.42;;;1.13;;
23080;SDS011;11708;50.570;8.532;2023-02-25T17:20:06;1.48;;;1.00;;
23080;SDS011;11708;50.570;8.532;2023-02-25T17:22:38;1.67;;;0.90;;
23080;SDS011;11708;50.570;8.532;2023-02-25T17:25:04;2.80;;;1.00;;
23080;SDS011;11708;50.570;8.532;2023-02-25T17:27:34;1.60;;;0.80;;
23080;SDS011;11708;50.570;8.532;2023-02-25T17:30:00;2.38;;;0.82;;
23080;SDS011;11708;50.570;8.532;2023-02-25T17:32:27;1.55;;;0.85;;
23080;SDS011;11708;50.570;8.532;2023-02-25T17:34:55;1.25;;;0.85;;
23080;SDS011;11708;50.570;8.532;2023-02-25T17:37:24;3.13;;;1.13;;
23080;SDS011;11708;50.570;8.532;2023-02-25T17:39:53;1.10;;;0.80;;
23080;SDS011;11708;50.570;8.532;2023-02-25T17:45:01;2.58;;;1.05;;
23080;SDS011;11708;50.570;8.532;2023-02-25T17:47:33;3.70;;;1.25;;
23080;SDS011;11708;50.570;8.532;2023-02-25T17:50:23;2.63;;;1.00;;
23080;SDS011;11708;50.570;8.532;2023-02-25T17:52:55;2.95;;;1.02;;
23080;SDS011;11708;50.570;8.532;2023-02-25T17:55:26;1.45;;;1.10;;
23080;SDS011;11708;50.570;8.532;2023-02-25T17:57:57;2.50;;;1.00;;
23080;SDS011;11708;50.570;8.532;2023-02-25T18:00:28;1.00;;;0.90;;
23080;SDS011;11708;50.570;8.532;2023-02-25T18:03:07;2.53;;;1.05;;
23080;SDS011;11708;50.570;8.532;2023-02-25T18:08:17;1.35;;;0.90;;
23080;SDS011;11708;50.570;8.532;2023-02-25T18:10:50;3.67;;;1.05;;
23080;SDS011;11708;50.570;8.532;2023-02-25T18:13:26;3.03;;;1.08;;
23080;SDS011;11708;50.570;8.532;2023-02-25T18:18:48;3.97;;;1.63;;
23080;SDS011;11708;50.570;8.532;2023-02-25T18:21:14;4.45;;;1.80;;
23080;SDS011;11708;50.570;8.532;2023-02-25T18:23:40;4.88;;;2.08;;
23080;SDS011;11708;50.570;8.532;2023-02-25T18:28:44;63.78;;;25.60;;
23080;SDS011;11708;50.570;8.532;2023-02-25T18:31:11;9.30;;;4.75;;
23080;SDS011;11708;50.570;8.532;2023-02-25T18:33:39;6.10;;;3.55;;
23080;SDS011;11708;50.570;8.532;2023-02-25T18:36:05;4.80;;;1.98;;
23080;SDS011;11708;50.570;8.532;2023-02-25T18:38:32;3.95;;;1.80;;
23080;SDS011;11708;50.570;8.532;2023-02-25T18:41:01;2.55;;;1.70;;
23080;SDS011;11708;50.570;8.532;2023-02-25T18:43:30;5.97;;;2.33;;
23080;SDS011;11708;50.570;8.532;2023-02-25T18:46:02;5.28;;;2.20;;
23080;SDS011;11708;50.570;8.532;2023-02-25T18:48:28;6.45;;;2.92;;
23080;SDS011;11708;50.570;8.532;2023-02-25T18:50:56;5.60;;;2.65;;
23080;SDS011;11708;50.570;8.532;2023-02-25T18:53:22;8.38;;;2.88;;
23080;SDS011;11708;50.570;8.532;2023-02-25T18:55:50;2.83;;;2.25;;
23080;SDS011;11708;50.570;8.532;2023-02-25T18:58:16;4.95;;;2.72;;